sensor_id;sensor_type;location;lat;lon;timestamp;P1;durP1;ratioP1;P2;durP2;ratioP2
5591;SDS011;2818;49.790;9.958;2022-12-18T00:01:03;59.63;;;30.60;;
5591;SDS011;2818;49.790;9.958;2022-12-18T00:03:32;59.17;;;29.53;;
5591;SDS011;2818;49.790;9.958;2022-12-18T00:06:00;56.80;;;28.17;;
5591;SDS011;2818;49.790;9.958;2022-12-18T00:08:27;58.30;;;30.10;;
5591;SDS011;2818;49.790;9.958;2022-12-18T00:10:54;57.60;;;28.17;;
5591;SDS011;2818;49.790;9.958;2022-12-18T00:13:25;52.93;;;27.13;;
5591;SDS011;2818;49.790;9.958;2022-12-18T00:15:54;55.17;;;28.47;;
5591;SDS011;2818;49.790;9.958;2022-12-18T00:18:21;54.37;;;27.57;;
5591;SDS011;2818;49.790;9.958;2022-12-18T00:20:48;51.07;;;26.53;;
5591;SDS011;2818;49.790;9.958;2022-12-18T00:23:15;51.00;;;26.60;;
5591;SDS011;2818;49.790;9.958;2022-12-18T00:25:42;53.73;;;27.60;;
5591;SDS011;2818;49.790;9.958;2022-12-18T00:28:09;43.43;;;24.60;;
5591;SDS011;2818;49.790;9.958;2022-12-18T00:30:36;51.63;;;25.93;;
5591;SDS011;2818;49.790;9.958;2022-12-18T00:33:02;51.47;;;25.63;;
5591;SDS011;2818;49.790;9.958;2022-12-18T00:35:29;48.70;;;25.87;;
5591;SDS011;2818;49.790;9.958;2022-12-18T00:37:58;42.13;;;22.33;;
5591;SDS011;2818;49.790;9.958;2022-12-18T00:40:24;44.80;;;24.47;;
5591;SDS011;2818;49.790;9.958;2022-12-18T00:42:51;49.17;;;24.30;;
5591;SDS011;2818;49.790;9.958;2022-12-18T00:45:29;47.70;;;24.73;;
5591;SDS011;2818;49.790;9.958;2022-12-18T00:47:57;52.07;;;25.30;;
5591;SDS011;2818;49.790;9.958;2022-12-18T00:50:24;44.90;;;23.83;;
5591;SDS011;2818;49.790;9.958;2022-12-18T00:52:51;51.40;;;24.10;;
5591;SDS011;2818;49.790;9.958;2022-12-18T00:55:18;52.57;;;25.37;;
5591;SDS011;2818;49.790;9.958;2022-12-18T00:57:45;48.07;;;25.40;;
5591;SDS011;2818;49.790;9.958;2022-12-18T01:00:13;45.37;;;23.63;;
5591;SDS011;2818;49.790;9.958;2022-12-18T01:02:41;47.10;;;23.47;;
5591;SDS011;2818;49.790;9.958;2022-12-18T01:05:09;43.30;;;22.63;;
5591;SDS011;2818;49.790;9.958;2022-12-18T01:07:40;47.80;;;22.50;;
5591;SDS011;2818;49.790;9.958;2022-12-18T01:10:08;43.00;;;23.87;;
5591;SDS011;2818;49.790;9.958;2022-12-18T01:12:37;47.77;;;22.23;;
5591;SDS011;2818;49.790;9.958;2022-12-18T01:15:05;40.83;;;21.90;;
5591;SDS011;2818;49.790;9.958;2022-12-18T01:17:33;42.70;;;22.43;;
5591;SDS011;2818;49.790;9.958;2022-12-18T01:20:00;44.90;;;22.43;;
5591;SDS011;2818;49.790;9.958;2022-12-18T01:22:27;48.97;;;23.03;;
5591;SDS011;2818;49.790;9.958;2022-12-18T01:24:54;47.63;;;22.43;;
5591;SDS011;2818;49.790;9.958;2022-12-18T01:27:21;42.53;;;21.23;;
5591;SDS011;2818;49.790;9.958;2022-12-18T01:29:48;44.47;;;23.13;;
5591;SDS011;2818;49.790;9.958;2022-12-18T01:32:15;42.07;;;21.00;;
5591;SDS011;2818;49.790;9.958;2022-12-18T01:34:42;37.00;;;20.50;;
5591;SDS011;2818;49.790;9.958;2022-12-18T01:37:09;41.57;;;22.50;;
5591;SDS011;2818;49.790;9.958;2022-12-18T01:39:36;43.57;;;20.77;;
5591;SDS011;2818;49.790;9.958;2022-12-18T01:42:05;38.30;;;19.67;;
5591;SDS011;2818;49.790;9.958;2022-12-18T01:50:25;38.20;;;19.70;;
5591;SDS011;2818;49.790;9.958;2022-12-18T01:52:51;42.27;;;21.17;;
5591;SDS011;2818;49.790;9.958;2022-12-18T01:55:22;38.93;;;20.40;;
5591;SDS011;2818;49.790;9.958;2022-12-18T01:57:52;44.90;;;21.43;;
5591;SDS011;2818;49.790;9.958;2022-12-18T02:00:21;45.30;;;21.80;;
5591;SDS011;2818;49.790;9.958;2022-12-18T02:02:49;44.20;;;21.00;;
5591;SDS011;2818;49.790;9.958;2022-12-18T02:05:32;39.80;;;19.87;;
5591;SDS011;2818;49.790;9.958;2022-12-18T02:08:19;37.83;;;20.07;;
5591;SDS011;2818;49.790;9.958;2022-12-18T02:13:43;33.60;;;19.90;;
5591;SDS011;2818;49.790;9.958;2022-12-18T02:19:20;36.97;;;19.87;;
5591;SDS011;2818;49.790;9.958;2022-12-18T02:27:49;36.27;;;19.97;;
5591;SDS011;2818;49.790;9.958;2022-12-18T02:30:18;43.03;;;20.20;;
5591;SDS011;2818;49.790;9.958;2022-12-18T02:32:47;39.20;;;20.63;;
5591;SDS011;2818;49.790;9.958;2022-12-18T02:35:19;44.10;;;19.60;;
5591;SDS011;2818;49.790;9.958;2022-12-18T02:37:50;42.03;;;20.40;;
5591;SDS011;2818;49.790;9.958;2022-12-18T02:40:19;33.67;;;19.67;;
5591;SDS011;2818;49.790;9.958;2022-12-18T02:42:49;41.30;;;20.67;;
5591;SDS011;2818;49.790;9.958;2022-12-18T02:45:16;32.07;;;18.53;;
5591;SDS011;2818;49.790;9.958;2022-12-18T02:47:45;42.40;;;18.80;;
5591;SDS011;2818;49.790;9.958;2022-12-18T02:50:58;42.90;;;20.70;;
5591;SDS011;2818;49.790;9.958;2022-12-18T02:55:41;38.20;;;20.50;;
5591;SDS011;2818;49.790;9.958;2022-12-18T03:01:24;40.90;;;19.27;;
5591;SDS011;2818;49.790;9.958;2022-12-18T03:03:55;38.40;;;20.00;;
5591;SDS011;2818;49.790;9.958;2022-12-18T03:06:30;37.43;;;18.70;;
5591;SDS011;2818;49.790;9.958;2022-12-18T03:09:02;37.37;;;20.60;;
5591;SDS011;2818;49.790;9.958;2022-12-18T03:11:36;42.33;;;19.50;;
5591;SDS011;2818;49.790;9.958;2022-12-18T03:14:25;45.20;;;21.27;;
5591;SDS011;2818;49.790;9.958;2022-12-18T03:16:56;45.43;;;22.10;;
5591;SDS011;2818;49.790;9.958;2022-12-18T03:19:26;43.90;;;22.23;;
5591;SDS011;2818;49.790;9.958;2022-12-18T03:21:57;34.60;;;20.10;;
5591;SDS011;2818;49.790;9.958;2022-12-18T03:24:29;40.37;;;21.90;;
5591;SDS011;2818;49.790;9.958;2022-12-18T03:26:59;40.30;;;20.97;;
5591;SDS011;2818;49.790;9.958;2022-12-18T03:29:31;36.53;;;21.00;;
5591;SDS011;2818;49.790;9.958;2022-12-18T03:32:01;42.13;;;21.83;;
5591;SDS011;2818;49.790;9.958;2022-12-18T03:34:52;42.10;;;20.63;;
5591;SDS011;2818;49.790;9.958;2022-12-18T03:37:23;43.80;;;20.50;;
5591;SDS011;2818;49.790;9.958;2022-12-18T03:39:50;38.77;;;20.57;;
5591;SDS011;2818;49.790;9.958;2022-12-18T03:42:26;37.57;;;19.90;;
5591;SDS011;2818;49.790;9.958;2022-12-18T03:45:12;39.67;;;20.50;;
5591;SDS011;2818;49.790;9.958;2022-12-18T03:52:58;37.53;;;20.30;;
5591;SDS011;2818;49.790;9.958;2022-12-18T03:55:32;38.07;;;19.57;;
5591;SDS011;2818;49.790;9.958;2022-12-18T03:58:01;39.40;;;19.37;;
5591;SDS011;2818;49.790;9.958;2022-12-18T04:00:30;42.13;;;19.77;;
5591;SDS011;2818;49.790;9.958;2022-12-18T04:02:58;38.77;;;18.20;;
5591;SDS011;2818;49.790;9.958;2022-12-18T04:05:28;43.20;;;19.63;;
5591;SDS011;2818;49.790;9.958;2022-12-18T04:07:56;40.30;;;19.40;;
5591;SDS011;2818;49.790;9.958;2022-12-18T04:10:24;31.80;;;18.50;;
5591;SDS011;2818;49.790;9.958;2022-12-18T04:12:50;37.60;;;19.67;;
5591;SDS011;2818;49.790;9.958;2022-12-18T04:15:22;41.23;;;19.57;;
5591;SDS011;2818;49.790;9.958;2022-12-18T04:17:50;39.97;;;20.50;;
5591;SDS011;2818;49.790;9.958;2022-12-18T04:20:17;44.20;;;21.07;;
5591;SDS011;2818;49.790;9.958;2022-12-18T04:22:44;43.03;;;20.43;;
5591;SDS011;2818;49.790;9.958;2022-12-18T04:25:11;39.53;;;19.93;;
5591;SDS011;2818;49.790;9.958;2022-12-18T04:27:38;40.47;;;20.90;;
5591;SDS011;2818;49.790;9.958;2022-12-18T04:30:05;41.30;;;21.07;;
5591;SDS011;2818;49.790;9.958;2022-12-18T04:32:33;40.63;;;20.50;;
5591;SDS011;2818;49.790;9.958;2022-12-18T04:35:01;45.37;;;21.20;;
5591;SDS011;2818;49.790;9.958;2022-12-18T04:37:28;50.23;;;22.13;;
5591;SDS011;2818;49.790;9.958;2022-12-18T04:39:55;52.50;;;23.30;;
5591;SDS011;2818;49.790;9.958;2022-12-18T04:42:22;51.30;;;23.53;;
5591;SDS011;2818;49.790;9.958;2022-12-18T04:44:48;44.60;;;22.80;;
5591;SDS011;2818;49.790;9.958;2022-12-18T04:47:15;48.57;;;21.90;;
5591;SDS011;2818;49.790;9.958;2022-12-18T04:49:42;41.37;;;20.80;;
5591;SDS011;2818;49.790;9.958;2022-12-18T04:52:09;51.40;;;22.87;;
5591;SDS011;2818;49.790;9.958;2022-12-18T04:54:36;41.20;;;22.00;;
5591;SDS011;2818;49.790;9.958;2022-12-18T04:57:03;41.97;;;21.60;;
5591;SDS011;2818;49.790;9.958;2022-12-18T04:59:29;43.57;;;20.70;;
5591;SDS011;2818;49.790;9.958;2022-12-18T05:01:56;41.13;;;22.00;;
5591;SDS011;2818;49.790;9.958;2022-12-18T05:04:23;46.53;;;22.40;;
5591;SDS011;2818;49.790;9.958;2022-12-18T05:06:50;36.57;;;21.47;;
5591;SDS011;2818;49.790;9.958;2022-12-18T05:09:17;53.30;;;22.50;;
5591;SDS011;2818;49.790;9.958;2022-12-18T05:11:44;41.67;;;22.23;;
5591;SDS011;2818;49.790;9.958;2022-12-18T05:14:12;40.60;;;20.80;;
5591;SDS011;2818;49.790;9.958;2022-12-18T05:16:39;43.53;;;20.60;;
5591;SDS011;2818;49.790;9.958;2022-12-18T05:19:06;47.13;;;20.90;;
5591;SDS011;2818;49.790;9.958;2022-12-18T05:21:33;42.40;;;20.63;;
5591;SDS011;2818;49.790;9.958;2022-12-18T05:24:00;35.77;;;17.13;;
5591;SDS011;2818;49.790;9.958;2022-12-18T05:26:27;34.63;;;17.83;;
5591;SDS011;2818;49.790;9.958;2022-12-18T05:28:54;32.90;;;17.53;;
5591;SDS011;2818;49.790;9.958;2022-12-18T05:31:22;41.07;;;18.60;;
5591;SDS011;2818;49.790;9.958;2022-12-18T05:33:49;38.67;;;18.87;;
5591;SDS011;2818;49.790;9.958;2022-12-18T05:36:16;40.33;;;18.73;;
5591;SDS011;2818;49.790;9.958;2022-12-18T05:38:43;34.00;;;17.50;;
5591;SDS011;2818;49.790;9.958;2022-12-18T05:41:10;37.20;;;18.60;;
5591;SDS011;2818;49.790;9.958;2022-12-18T05:43:37;37.70;;;17.77;;
5591;SDS011;2818;49.790;9.958;2022-12-18T05:46:06;37.07;;;17.90;;
5591;SDS011;2818;49.790;9.958;2022-12-18T05:48:34;37.30;;;18.43;;
5591;SDS011;2818;49.790;9.958;2022-12-18T05:51:05;38.20;;;18.40;;
5591;SDS011;2818;49.790;9.958;2022-12-18T05:53:34;36.70;;;19.07;;
5591;SDS011;2818;49.790;9.958;2022-12-18T05:56:02;41.70;;;19.87;;
5591;SDS011;2818;49.790;9.958;2022-12-18T05:58:32;39.77;;;20.20;;
5591;SDS011;2818;49.790;9.958;2022-12-18T06:01:05;45.70;;;21.07;;
5591;SDS011;2818;49.790;9.958;2022-12-18T06:03:37;41.10;;;20.07;;
5591;SDS011;2818;49.790;9.958;2022-12-18T06:06:22;37.17;;;19.67;;
5591;SDS011;2818;49.790;9.958;2022-12-18T06:08:51;40.03;;;19.80;;
5591;SDS011;2818;49.790;9.958;2022-12-18T06:11:19;51.00;;;20.87;;
5591;SDS011;2818;49.790;9.958;2022-12-18T06:13:51;40.83;;;19.27;;
5591;SDS011;2818;49.790;9.958;2022-12-18T06:16:24;43.37;;;19.50;;
5591;SDS011;2818;49.790;9.958;2022-12-18T06:18:51;36.47;;;18.70;;
5591;SDS011;2818;49.790;9.958;2022-12-18T06:21:18;41.93;;;19.37;;
5591;SDS011;2818;49.790;9.958;2022-12-18T06:23:46;42.73;;;18.77;;
5591;SDS011;2818;49.790;9.958;2022-12-18T06:26:13;41.90;;;17.87;;
5591;SDS011;2818;49.790;9.958;2022-12-18T06:28:40;39.57;;;18.33;;
5591;SDS011;2818;49.790;9.958;2022-12-18T06:31:08;47.53;;;19.60;;
5591;SDS011;2818;49.790;9.958;2022-12-18T06:33:35;45.13;;;18.37;;
5591;SDS011;2818;49.790;9.958;2022-12-18T06:36:07;44.27;;;19.13;;
5591;SDS011;2818;49.790;9.958;2022-12-18T06:38:37;47.20;;;18.40;;
5591;SDS011;2818;49.790;9.958;2022-12-18T06:41:09;50.87;;;19.30;;
5591;SDS011;2818;49.790;9.958;2022-12-18T06:43:38;44.30;;;18.53;;
5591;SDS011;2818;49.790;9.958;2022-12-18T06:46:05;50.17;;;19.10;;
5591;SDS011;2818;49.790;9.958;2022-12-18T06:48:32;45.03;;;17.20;;
5591;SDS011;2818;49.790;9.958;2022-12-18T06:51:00;47.83;;;19.53;;
5591;SDS011;2818;49.790;9.958;2022-12-18T06:53:26;44.60;;;18.40;;
5591;SDS011;2818;49.790;9.958;2022-12-18T06:56:04;45.30;;;18.70;;
5591;SDS011;2818;49.790;9.958;2022-12-18T06:58:35;52.67;;;19.97;;
5591;SDS011;2818;49.790;9.958;2022-12-18T07:01:03;45.73;;;18.97;;
5591;SDS011;2818;49.790;9.958;2022-12-18T07:03:32;55.00;;;20.97;;
5591;SDS011;2818;49.790;9.958;2022-12-18T07:05:59;60.20;;;21.20;;
5591;SDS011;2818;49.790;9.958;2022-12-18T07:08:26;51.80;;;19.50;;
5591;SDS011;2818;49.790;9.958;2022-12-18T07:10:53;52.33;;;20.27;;
5591;SDS011;2818;49.790;9.958;2022-12-18T07:13:21;59.03;;;20.77;;
5591;SDS011;2818;49.790;9.958;2022-12-18T07:15:48;48.50;;;19.33;;
5591;SDS011;2818;49.790;9.958;2022-12-18T07:18:15;49.33;;;22.80;;
5591;SDS011;2818;49.790;9.958;2022-12-18T07:20:42;47.23;;;22.30;;
5591;SDS011;2818;49.790;9.958;2022-12-18T07:23:11;49.17;;;20.03;;
5591;SDS011;2818;49.790;9.958;2022-12-18T07:25:38;45.50;;;21.87;;
5591;SDS011;2818;49.790;9.958;2022-12-18T07:28:05;42.80;;;21.20;;
5591;SDS011;2818;49.790;9.958;2022-12-18T07:30:36;44.00;;;19.90;;
5591;SDS011;2818;49.790;9.958;2022-12-18T07:33:03;43.60;;;18.63;;
5591;SDS011;2818;49.790;9.958;2022-12-18T07:35:30;46.17;;;18.90;;
5591;SDS011;2818;49.790;9.958;2022-12-18T07:37:58;48.00;;;19.33;;
5591;SDS011;2818;49.790;9.958;2022-12-18T07:40:25;41.83;;;19.10;;
5591;SDS011;2818;49.790;9.958;2022-12-18T07:42:52;45.83;;;19.37;;
5591;SDS011;2818;49.790;9.958;2022-12-18T07:45:19;40.00;;;18.63;;
5591;SDS011;2818;49.790;9.958;2022-12-18T07:47:46;43.40;;;20.23;;
5591;SDS011;2818;49.790;9.958;2022-12-18T07:50:12;45.00;;;19.40;;
5591;SDS011;2818;49.790;9.958;2022-12-18T07:52:39;42.77;;;19.80;;
5591;SDS011;2818;49.790;9.958;2022-12-18T07:55:07;46.47;;;20.50;;
5591;SDS011;2818;49.790;9.958;2022-12-18T07:57:34;44.10;;;19.47;;
5591;SDS011;2818;49.790;9.958;2022-12-18T08:00:21;46.37;;;19.80;;
5591;SDS011;2818;49.790;9.958;2022-12-18T08:02:48;42.80;;;19.67;;
5591;SDS011;2818;49.790;9.958;2022-12-18T08:05:15;49.93;;;21.00;;
5591;SDS011;2818;49.790;9.958;2022-12-18T08:07:42;41.13;;;19.23;;
5591;SDS011;2818;49.790;9.958;2022-12-18T08:10:09;47.90;;;20.77;;
5591;SDS011;2818;49.790;9.958;2022-12-18T08:12:36;42.83;;;20.23;;
5591;SDS011;2818;49.790;9.958;2022-12-18T08:15:03;42.90;;;19.50;;
5591;SDS011;2818;49.790;9.958;2022-12-18T08:17:31;44.43;;;19.43;;
5591;SDS011;2818;49.790;9.958;2022-12-18T08:19:58;40.60;;;19.40;;
5591;SDS011;2818;49.790;9.958;2022-12-18T08:22:25;44.93;;;19.40;;
5591;SDS011;2818;49.790;9.958;2022-12-18T08:24:52;45.73;;;19.00;;
5591;SDS011;2818;49.790;9.958;2022-12-18T08:27:19;46.53;;;20.20;;
5591;SDS011;2818;49.790;9.958;2022-12-18T08:29:55;38.27;;;18.87;;
5591;SDS011;2818;49.790;9.958;2022-12-18T08:32:22;55.20;;;22.37;;
5591;SDS011;2818;49.790;9.958;2022-12-18T08:34:50;43.57;;;18.83;;
5591;SDS011;2818;49.790;9.958;2022-12-18T08:37:17;45.90;;;21.27;;
5591;SDS011;2818;49.790;9.958;2022-12-18T08:39:44;43.70;;;20.43;;
5591;SDS011;2818;49.790;9.958;2022-12-18T08:42:11;45.23;;;20.80;;
5591;SDS011;2818;49.790;9.958;2022-12-18T08:44:56;42.50;;;20.17;;
5591;SDS011;2818;49.790;9.958;2022-12-18T08:47:23;40.87;;;20.20;;
5591;SDS011;2818;49.790;9.958;2022-12-18T08:49:52;47.43;;;22.57;;
5591;SDS011;2818;49.790;9.958;2022-12-18T08:52:18;49.90;;;22.40;;
5591;SDS011;2818;49.790;9.958;2022-12-18T08:54:45;50.97;;;22.40;;
5591;SDS011;2818;49.790;9.958;2022-12-18T08:57:12;46.20;;;22.37;;
5591;SDS011;2818;49.790;9.958;2022-12-18T08:59:39;49.60;;;22.40;;
5591;SDS011;2818;49.790;9.958;2022-12-18T09:02:07;49.90;;;21.70;;
5591;SDS011;2818;49.790;9.958;2022-12-18T09:04:36;46.83;;;22.67;;
5591;SDS011;2818;49.790;9.958;2022-12-18T09:07:03;48.10;;;22.00;;
5591;SDS011;2818;49.790;9.958;2022-12-18T09:09:30;46.17;;;21.57;;
5591;SDS011;2818;49.790;9.958;2022-12-18T09:11:57;46.93;;;22.70;;
5591;SDS011;2818;49.790;9.958;2022-12-18T09:14:24;53.33;;;22.57;;
5591;SDS011;2818;49.790;9.958;2022-12-18T09:16:51;48.17;;;23.17;;
5591;SDS011;2818;49.790;9.958;2022-12-18T09:19:18;46.67;;;22.00;;
5591;SDS011;2818;49.790;9.958;2022-12-18T09:21:45;53.00;;;23.43;;
5591;SDS011;2818;49.790;9.958;2022-12-18T09:24:14;48.13;;;21.63;;
5591;SDS011;2818;49.790;9.958;2022-12-18T09:26:41;51.63;;;21.77;;
5591;SDS011;2818;49.790;9.958;2022-12-18T09:29:12;49.27;;;23.20;;
5591;SDS011;2818;49.790;9.958;2022-12-18T09:31:41;47.03;;;21.80;;
5591;SDS011;2818;49.790;9.958;2022-12-18T09:34:08;54.37;;;22.67;;
5591;SDS011;2818;49.790;9.958;2022-12-18T09:36:35;46.97;;;21.70;;
5591;SDS011;2818;49.790;9.958;2022-12-18T09:39:02;43.20;;;20.13;;
5591;SDS011;2818;49.790;9.958;2022-12-18T09:41:53;48.40;;;21.30;;
5591;SDS011;2818;49.790;9.958;2022-12-18T09:46:53;51.93;;;22.13;;
5591;SDS011;2818;49.790;9.958;2022-12-18T09:49:22;45.07;;;21.03;;
5591;SDS011;2818;49.790;9.958;2022-12-18T09:51:54;49.83;;;19.63;;
5591;SDS011;2818;49.790;9.958;2022-12-18T09:57:52;44.10;;;18.23;;
5591;SDS011;2818;49.790;9.958;2022-12-18T10:00:27;46.13;;;18.50;;
5591;SDS011;2818;49.790;9.958;2022-12-18T10:03:08;44.30;;;18.60;;
5591;SDS011;2818;49.790;9.958;2022-12-18T10:05:38;46.50;;;19.63;;
5591;SDS011;2818;49.790;9.958;2022-12-18T10:13:54;39.13;;;17.80;;
5591;SDS011;2818;49.790;9.958;2022-12-18T10:21:33;41.80;;;18.53;;
5591;SDS011;2818;49.790;9.958;2022-12-18T10:24:08;54.13;;;21.33;;
5591;SDS011;2818;49.790;9.958;2022-12-18T10:27:11;41.53;;;18.70;;
5591;SDS011;2818;49.790;9.958;2022-12-18T10:29:43;43.43;;;18.80;;
5591;SDS011;2818;49.790;9.958;2022-12-18T10:32:15;49.70;;;20.43;;
5591;SDS011;2818;49.790;9.958;2022-12-18T10:34:48;48.30;;;19.87;;
5591;SDS011;2818;49.790;9.958;2022-12-18T10:37:25;45.53;;;19.97;;
5591;SDS011;2818;49.790;9.958;2022-12-18T10:42:34;48.03;;;20.07;;
5591;SDS011;2818;49.790;9.958;2022-12-18T10:45:05;44.07;;;20.27;;
5591;SDS011;2818;49.790;9.958;2022-12-18T10:47:42;45.83;;;20.43;;
5591;SDS011;2818;49.790;9.958;2022-12-18T10:50:45;43.87;;;19.30;;
5591;SDS011;2818;49.790;9.958;2022-12-18T10:53:28;48.33;;;19.57;;
5591;SDS011;2818;49.790;9.958;2022-12-18T10:56:00;43.97;;;19.50;;
5591;SDS011;2818;49.790;9.958;2022-12-18T10:58:32;44.97;;;19.77;;
5591;SDS011;2818;49.790;9.958;2022-12-18T11:03:38;47.77;;;19.57;;
5591;SDS011;2818;49.790;9.958;2022-12-18T11:06:10;46.13;;;19.70;;
5591;SDS011;2818;49.790;9.958;2022-12-18T11:08:39;47.17;;;20.90;;
5591;SDS011;2818;49.790;9.958;2022-12-18T11:11:17;40.43;;;18.20;;
5591;SDS011;2818;49.790;9.958;2022-12-18T11:16:29;41.07;;;18.03;;
5591;SDS011;2818;49.790;9.958;2022-12-18T11:21:50;39.43;;;18.60;;
5591;SDS011;2818;49.790;9.958;2022-12-18T11:24:19;48.50;;;20.40;;
5591;SDS011;2818;49.790;9.958;2022-12-18T11:26:50;53.73;;;21.23;;
5591;SDS011;2818;49.790;9.958;2022-12-18T11:29:28;37.70;;;18.10;;
5591;SDS011;2818;49.790;9.958;2022-12-18T11:32:13;38.33;;;17.00;;
5591;SDS011;2818;49.790;9.958;2022-12-18T11:35:08;38.30;;;17.10;;
5591;SDS011;2818;49.790;9.958;2022-12-18T11:37:45;38.50;;;16.53;;
5591;SDS011;2818;49.790;9.958;2022-12-18T11:40:17;29.53;;;15.90;;
5591;SDS011;2818;49.790;9.958;2022-12-18T11:42:55;35.10;;;16.37;;
5591;SDS011;2818;49.790;9.958;2022-12-18T11:45:35;32.17;;;15.23;;
5591;SDS011;2818;49.790;9.958;2022-12-18T11:50:51;33.43;;;15.20;;
5591;SDS011;2818;49.790;9.958;2022-12-18T11:53:20;27.30;;;13.50;;
5591;SDS011;2818;49.790;9.958;2022-12-18T12:02:22;30.43;;;13.90;;
5591;SDS011;2818;49.790;9.958;2022-12-18T12:05:04;31.20;;;13.90;;
5591;SDS011;2818;49.790;9.958;2022-12-18T12:13:55;28.90;;;14.10;;
5591;SDS011;2818;49.790;9.958;2022-12-18T12:24:54;29.23;;;12.67;;
5591;SDS011;2818;49.790;9.958;2022-12-18T12:27:36;28.40;;;13.40;;
5591;SDS011;2818;49.790;9.958;2022-12-18T12:33:04;26.40;;;13.00;;
5591;SDS011;2818;49.790;9.958;2022-12-18T12:41:03;29.70;;;13.60;;
5591;SDS011;2818;49.790;9.958;2022-12-18T12:43:54;29.70;;;15.47;;
5591;SDS011;2818;49.790;9.958;2022-12-18T12:46:24;28.87;;;14.60;;
5591;SDS011;2818;49.790;9.958;2022-12-18T12:48:56;27.10;;;14.20;;
5591;SDS011;2818;49.790;9.958;2022-12-18T12:51:26;29.50;;;13.60;;
5591;SDS011;2818;49.790;9.958;2022-12-18T12:54:00;30.50;;;14.30;;
5591;SDS011;2818;49.790;9.958;2022-12-18T12:59:23;25.03;;;14.13;;
5591;SDS011;2818;49.790;9.958;2022-12-18T13:02:21;27.30;;;13.60;;
5591;SDS011;2818;49.790;9.958;2022-12-18T13:05:02;24.80;;;12.93;;
5591;SDS011;2818;49.790;9.958;2022-12-18T13:07:41;28.90;;;13.43;;
5591;SDS011;2818;49.790;9.958;2022-12-18T13:12:56;28.30;;;14.13;;
5591;SDS011;2818;49.790;9.958;2022-12-18T13:23:35;26.70;;;13.80;;
5591;SDS011;2818;49.790;9.958;2022-12-18T13:34:18;26.23;;;13.53;;
5591;SDS011;2818;49.790;9.958;2022-12-18T13:36:55;25.83;;;13.20;;
5591;SDS011;2818;49.790;9.958;2022-12-18T13:39:43;24.97;;;13.53;;
5591;SDS011;2818;49.790;9.958;2022-12-18T13:44:57;35.50;;;14.97;;
5591;SDS011;2818;49.790;9.958;2022-12-18T13:47:34;27.03;;;13.27;;
5591;SDS011;2818;49.790;9.958;2022-12-18T13:50:10;27.33;;;13.20;;
5591;SDS011;2818;49.790;9.958;2022-12-18T13:52:57;25.33;;;12.67;;
5591;SDS011;2818;49.790;9.958;2022-12-18T13:55:24;26.67;;;12.87;;
5591;SDS011;2818;49.790;9.958;2022-12-18T13:58:02;28.90;;;14.60;;
5591;SDS011;2818;49.790;9.958;2022-12-18T14:00:31;25.97;;;13.60;;
5591;SDS011;2818;49.790;9.958;2022-12-18T14:02:58;27.10;;;13.10;;
5591;SDS011;2818;49.790;9.958;2022-12-18T14:05:28;33.13;;;14.50;;
5591;SDS011;2818;49.790;9.958;2022-12-18T14:08:08;24.93;;;13.30;;
5591;SDS011;2818;49.790;9.958;2022-12-18T14:10:45;27.70;;;13.60;;
5591;SDS011;2818;49.790;9.958;2022-12-18T14:13:19;31.20;;;15.33;;
5591;SDS011;2818;49.790;9.958;2022-12-18T14:15:46;26.97;;;14.13;;
5591;SDS011;2818;49.790;9.958;2022-12-18T14:20:48;33.53;;;15.87;;
5591;SDS011;2818;49.790;9.958;2022-12-18T14:23:28;29.90;;;15.30;;
5591;SDS011;2818;49.790;9.958;2022-12-18T14:25:59;29.20;;;14.53;;
5591;SDS011;2818;49.790;9.958;2022-12-18T14:28:46;25.53;;;13.10;;
5591;SDS011;2818;49.790;9.958;2022-12-18T14:31:23;28.03;;;13.90;;
5591;SDS011;2818;49.790;9.958;2022-12-18T14:33:52;24.97;;;12.63;;
5591;SDS011;2818;49.790;9.958;2022-12-18T14:36:23;27.23;;;13.13;;
5591;SDS011;2818;49.790;9.958;2022-12-18T14:38:54;30.43;;;15.10;;
5591;SDS011;2818;49.790;9.958;2022-12-18T14:41:23;71.60;;;34.40;;
5591;SDS011;2818;49.790;9.958;2022-12-18T14:43:51;27.60;;;14.50;;
5591;SDS011;2818;49.790;9.958;2022-12-18T14:48:56;24.60;;;12.80;;
5591;SDS011;2818;49.790;9.958;2022-12-18T14:51:24;27.73;;;13.50;;
5591;SDS011;2818;49.790;9.958;2022-12-18T14:58:53;27.00;;;13.57;;
5591;SDS011;2818;49.790;9.958;2022-12-18T15:03:55;24.50;;;13.00;;
5591;SDS011;2818;49.790;9.958;2022-12-18T15:06:28;29.60;;;14.03;;
5591;SDS011;2818;49.790;9.958;2022-12-18T15:08:57;27.13;;;14.47;;
5591;SDS011;2818;49.790;9.958;2022-12-18T15:11:31;31.07;;;15.43;;
5591;SDS011;2818;49.790;9.958;2022-12-18T15:14:23;33.03;;;14.73;;
5591;SDS011;2818;49.790;9.958;2022-12-18T15:16:56;30.37;;;14.40;;
5591;SDS011;2818;49.790;9.958;2022-12-18T15:19:47;26.23;;;14.13;;
5591;SDS011;2818;49.790;9.958;2022-12-18T15:22:24;32.47;;;15.23;;
5591;SDS011;2818;49.790;9.958;2022-12-18T15:24:53;31.23;;;15.10;;
5591;SDS011;2818;49.790;9.958;2022-12-18T15:32:37;33.90;;;14.70;;
5591;SDS011;2818;49.790;9.958;2022-12-18T15:37:37;29.97;;;14.27;;
5591;SDS011;2818;49.790;9.958;2022-12-18T15:40:08;32.37;;;14.93;;
5591;SDS011;2818;49.790;9.958;2022-12-18T15:42:39;28.40;;;13.83;;
5591;SDS011;2818;49.790;9.958;2022-12-18T15:45:25;30.90;;;15.27;;
5591;SDS011;2818;49.790;9.958;2022-12-18T15:47:52;27.70;;;14.00;;
5591;SDS011;2818;49.790;9.958;2022-12-18T15:50:20;34.83;;;15.50;;
5591;SDS011;2818;49.790;9.958;2022-12-18T15:52:48;34.43;;;15.27;;
5591;SDS011;2818;49.790;9.958;2022-12-18T15:55:19;36.20;;;15.77;;
5591;SDS011;2818;49.790;9.958;2022-12-18T15:58:07;29.83;;;15.70;;
5591;SDS011;2818;49.790;9.958;2022-12-18T16:00:36;34.70;;;16.00;;
5591;SDS011;2818;49.790;9.958;2022-12-18T16:03:05;29.03;;;14.67;;
5591;SDS011;2818;49.790;9.958;2022-12-18T16:05:33;30.97;;;15.30;;
5591;SDS011;2818;49.790;9.958;2022-12-18T16:08:00;31.70;;;15.80;;
5591;SDS011;2818;49.790;9.958;2022-12-18T16:10:27;35.00;;;16.30;;
5591;SDS011;2818;49.790;9.958;2022-12-18T16:12:54;29.77;;;15.27;;
5591;SDS011;2818;49.790;9.958;2022-12-18T16:15:21;28.77;;;14.93;;
5591;SDS011;2818;49.790;9.958;2022-12-18T16:17:50;33.63;;;16.23;;
5591;SDS011;2818;49.790;9.958;2022-12-18T16:20:21;36.77;;;16.80;;
5591;SDS011;2818;49.790;9.958;2022-12-18T16:22:48;38.43;;;18.23;;
5591;SDS011;2818;49.790;9.958;2022-12-18T16:25:18;36.67;;;17.07;;
5591;SDS011;2818;49.790;9.958;2022-12-18T16:27:53;35.00;;;15.90;;
5591;SDS011;2818;49.790;9.958;2022-12-18T16:30:25;37.20;;;16.83;;
5591;SDS011;2818;49.790;9.958;2022-12-18T16:33:01;34.73;;;17.97;;
5591;SDS011;2818;49.790;9.958;2022-12-18T16:35:28;35.70;;;17.67;;
5591;SDS011;2818;49.790;9.958;2022-12-18T16:37:55;35.27;;;17.67;;
5591;SDS011;2818;49.790;9.958;2022-12-18T16:40:22;30.50;;;16.30;;
5591;SDS011;2818;49.790;9.958;2022-12-18T16:42:49;34.47;;;17.93;;
5591;SDS011;2818;49.790;9.958;2022-12-18T16:45:16;36.00;;;17.30;;
5591;SDS011;2818;49.790;9.958;2022-12-18T16:47:44;34.77;;;17.33;;
5591;SDS011;2818;49.790;9.958;2022-12-18T16:50:11;36.33;;;17.30;;
5591;SDS011;2818;49.790;9.958;2022-12-18T16:52:38;31.37;;;16.17;;
5591;SDS011;2818;49.790;9.958;2022-12-18T16:55:07;34.07;;;17.57;;
5591;SDS011;2818;49.790;9.958;2022-12-18T16:57:34;31.53;;;15.80;;
5591;SDS011;2818;49.790;9.958;2022-12-18T17:00:02;35.60;;;18.10;;
5591;SDS011;2818;49.790;9.958;2022-12-18T17:02:31;35.70;;;16.30;;
5591;SDS011;2818;49.790;9.958;2022-12-18T17:04:59;33.40;;;16.37;;
5591;SDS011;2818;49.790;9.958;2022-12-18T17:07:26;35.40;;;16.13;;
5591;SDS011;2818;49.790;9.958;2022-12-18T17:09:53;32.47;;;16.80;;
5591;SDS011;2818;49.790;9.958;2022-12-18T17:12:21;36.33;;;16.90;;
5591;SDS011;2818;49.790;9.958;2022-12-18T17:14:48;36.23;;;18.03;;
5591;SDS011;2818;49.790;9.958;2022-12-18T17:17:15;31.67;;;15.73;;
5591;SDS011;2818;49.790;9.958;2022-12-18T17:19:48;33.10;;;15.63;;
5591;SDS011;2818;49.790;9.958;2022-12-18T17:22:16;34.03;;;15.87;;